sensor_id;sensor_type;location;lat;lon;timestamp;pressure;altitude;pressure_sealevel;temperature;humidity
12360;BME280;6244;51.460;7.090;2023-12-07T00:01:37;100980.25;;;1.33;100.00
12360;BME280;6244;51.460;7.090;2023-12-07T00:06:34;100976.91;;;1.21;100.00
12360;BME280;6244;51.460;7.090;2023-12-07T00:11:30;100984.72;;;1.14;100.00
12360;BME280;6244;51.460;7.090;2023-12-07T00:16:27;100995.03;;;1.17;100.00
12360;BME280;6244;51.460;7.090;2023-12-07T00:21:24;100991.56;;;1.18;100.00
12360;BME280;6244;51.460;7.090;2023-12-07T00:26:21;100985.59;;;1.13;100.00
12360;BME280;6244;51.460;7.090;2023-12-07T00:31:17;100993.34;;;1.13;100.00
12360;BME280;6244;51.460;7.090;2023-12-07T00:36:15;100987.28;;;1.16;100.00
12360;BME280;6244;51.460;7.090;2023-12-07T00:41:13;100986.38;;;1.20;100.00
12360;BME280;6244;51.460;7.090;2023-12-07T00:46:10;100977.84;;;1.12;100.00
12360;BME280;6244;51.460;7.090;2023-12-07T00:51:07;100977.75;;;1.26;100.00
12360;BME280;6244;51.460;7.090;2023-12-07T00:56:04;100981.19;;;1.26;100.00
12360;BME280;6244;51.460;7.090;2023-12-07T01:01:02;100982.88;;;1.29;100.00
12360;BME280;6244;51.460;7.090;2023-12-07T01:05:59;100983.84;;;1.15;100.00
12360;BME280;6244;51.460;7.090;2023-12-07T01:10:55;100988.84;;;1.40;100.00
12360;BME280;6244;51.460;7.090;2023-12-07T01:15:52;100986.19;;;1.44;100.00
12360;BME280;6244;51.460;7.090;2023-12-07T01:20:49;100990.66;;;1.26;100.00
12360;BME280;6244;51.460;7.090;2023-12-07T01:25:46;101000.03;;;1.40;100.00
12360;BME280;6244;51.460;7.090;2023-12-07T01:30:43;101001.84;;;1.28;100.00
12360;BME280;6244;51.460;7.090;2023-12-07T01:35:39;101001.06;;;1.18;100.00
12360;BME280;6244;51.460;7.090;2023-12-07T01:40:37;101004.50;;;1.17;100.00
12360;BME280;6244;51.460;7.090;2023-12-07T01:45:33;101002.03;;;1.03;100.00
12360;BME280;6244;51.460;7.090;2023-12-07T01:50:30;101007.16;;;1.06;100.00
12360;BME280;6244;51.460;7.090;2023-12-07T01:55:27;101013.16;;;1.10;100.00
12360;BME280;6244;51.460;7.090;2023-12-07T02:00:26;101009.75;;;1.05;100.00
12360;BME280;6244;51.460;7.090;2023-12-07T02:05:24;101006.34;;;1.01;100.00
12360;BME280;6244;51.460;7.090;2023-12-07T02:10:21;101012.38;;;0.99;100.00
12360;BME280;6244;51.460;7.090;2023-12-07T02:15:18;101011.53;;;1.00;100.00
12360;BME280;6244;51.460;7.090;2023-12-07T02:20:21;101027.88;;;1.02;100.00
12360;BME280;6244;51.460;7.090;2023-12-07T02:25:26;101025.34;;;0.93;100.00
12360;BME280;6244;51.460;7.090;2023-12-07T02:30:26;101022.69;;;0.99;100.00
12360;BME280;6244;51.460;7.090;2023-12-07T02:35:24;101032.22;;;0.92;100.00
12360;BME280;6244;51.460;7.090;2023-12-07T02:40:24;101046.09;;;0.79;100.00
12360;BME280;6244;51.460;7.090;2023-12-07T02:45:21;101055.50;;;0.84;100.00
12360;BME280;6244;51.460;7.090;2023-12-07T02:50:18;101043.38;;;0.97;100.00
12360;BME280;6244;51.460;7.090;2023-12-07T02:55:15;101043.41;;;0.94;100.00
12360;BME280;6244;51.460;7.090;2023-12-07T03:00:12;101031.31;;;0.98;100.00
12360;BME280;6244;51.460;7.090;2023-12-07T03:05:09;101028.78;;;0.92;100.00
12360;BME280;6244;51.460;7.090;2023-12-07T03:10:07;101023.66;;;0.88;100.00
12360;BME280;6244;51.460;7.090;2023-12-07T03:15:05;101022.81;;;0.80;100.00
12360;BME280;6244;51.460;7.090;2023-12-07T03:20:03;101016.78;;;0.83;100.00
12360;BME280;6244;51.460;7.090;2023-12-07T03:25:00;101024.50;;;0.84;100.00
12360;BME280;6244;51.460;7.090;2023-12-07T03:29:58;101021.09;;;0.79;100.00
12360;BME280;6244;51.460;7.090;2023-12-07T03:34:55;101019.34;;;0.84;100.00
12360;BME280;6244;51.460;7.090;2023-12-07T03:39:51;101021.94;;;0.84;100.00
12360;BME280;6244;51.460;7.090;2023-12-07T03:44:48;101027.13;;;0.80;100.00
12360;BME280;6244;51.460;7.090;2023-12-07T03:49:46;101014.97;;;0.97;100.00
12360;BME280;6244;51.460;7.090;2023-12-07T03:54:42;101017.28;;;1.35;100.00
12360;BME280;6244;51.460;7.090;2023-12-07T03:59:39;101031.75;;;1.61;100.00
12360;BME280;6244;51.460;7.090;2023-12-07T04:04:35;101038.47;;;1.82;100.00
12360;BME280;6244;51.460;7.090;2023-12-07T04:09:35;101042.00;;;1.70;100.00
12360;BME280;6244;51.460;7.090;2023-12-07T04:14:31;101034.38;;;1.55;100.00
12360;BME280;6244;51.460;7.090;2023-12-07T04:19:28;101038.63;;;1.63;100.00
12360;BME280;6244;51.460;7.090;2023-12-07T04:24:24;101040.41;;;1.55;100.00
12360;BME280;6244;51.460;7.090;2023-12-07T04:29:22;101040.38;;;1.61;100.00
12360;BME280;6244;51.460;7.090;2023-12-07T04:34:19;101048.13;;;1.63;100.00
12360;BME280;6244;51.460;7.090;2023-12-07T04:39:18;101040.47;;;1.46;100.00
12360;BME280;6244;51.460;7.090;2023-12-07T04:44:15;101043.91;;;1.48;100.00
12360;BME280;6244;51.460;7.090;2023-12-07T04:49:13;101047.34;;;1.53;100.00
12360;BME280;6244;51.460;7.090;2023-12-07T04:54:10;101063.59;;;1.69;100.00
12360;BME280;6244;51.460;7.090;2023-12-07T04:59:06;101051.44;;;1.79;100.00
12360;BME280;6244;51.460;7.090;2023-12-07T05:04:04;101045.44;;;1.72;100.00
12360;BME280;6244;51.460;7.090;2023-12-07T05:09:02;101044.59;;;1.71;100.00
12360;BME280;6244;51.460;7.090;2023-12-07T05:13:59;101043.69;;;1.77;100.00
12360;BME280;6244;51.460;7.090;2023-12-07T05:18:56;101053.97;;;1.86;100.00
12360;BME280;6244;51.460;7.090;2023-12-07T05:23:55;101049.66;;;1.82;100.00
12360;BME280;6244;51.460;7.090;2023-12-07T05:28:55;101060.06;;;1.77;100.00
12360;BME280;6244;51.460;7.090;2023-12-07T05:33:52;101059.22;;;1.75;100.00
12360;BME280;6244;51.460;7.090;2023-12-07T05:38:49;101061.75;;;1.82;100.00
12360;BME280;6244;51.460;7.090;2023-12-07T05:43:49;101065.09;;;1.94;100.00
12360;BME280;6244;51.460;7.090;2023-12-07T05:48:48;101065.91;;;2.01;100.00
12360;BME280;6244;51.460;7.090;2023-12-07T05:53:44;101058.13;;;2.02;100.00
12360;BME280;6244;51.460;7.090;2023-12-07T05:58:41;101058.09;;;2.05;100.00
12360;BME280;6244;51.460;7.090;2023-12-07T06:03:38;101057.25;;;2.03;100.00
12360;BME280;6244;51.460;7.090;2023-12-07T06:08:37;101055.34;;;2.19;100.00
12360;BME280;6244;51.460;7.090;2023-12-07T06:13:33;101052.66;;;2.30;100.00
12360;BME280;6244;51.460;7.090;2023-12-07T06:18:30;101047.53;;;2.25;100.00
12360;BME280;6244;51.460;7.090;2023-12-07T06:23:26;101041.75;;;2.00;100.00
12360;BME280;6244;51.460;7.090;2023-12-07T06:28:24;101040.75;;;2.11;100.00
12360;BME280;6244;51.460;7.090;2023-12-07T06:33:20;101046.06;;;2.00;100.00
12360;BME280;6244;51.460;7.090;2023-12-07T06:38:17;101046.88;;;2.05;100.00
12360;BME280;6244;51.460;7.090;2023-12-07T06:43:15;101031.41;;;1.97;100.00
12360;BME280;6244;51.460;7.090;2023-12-07T06:48:13;101044.34;;;2.00;100.00
12360;BME280;6244;51.460;7.090;2023-12-07T06:53:10;101041.63;;;2.10;100.00
12360;BME280;6244;51.460;7.090;2023-12-07T06:58:06;101036.50;;;2.06;100.00
12360;BME280;6244;51.460;7.090;2023-12-07T07:03:03;101041.66;;;2.11;100.00
12360;BME280;6244;51.460;7.090;2023-12-07T07:08:02;101032.19;;;2.07;100.00
12360;BME280;6244;51.460;7.090;2023-12-07T07:13:02;101033.00;;;2.09;100.00
12360;BME280;6244;51.460;7.090;2023-12-07T07:17:59;101041.66;;;2.11;100.00
12360;BME280;6244;51.460;7.090;2023-12-07T07:22:57;101035.72;;;2.00;100.00
12360;BME280;6244;51.460;7.090;2023-12-07T07:27:54;101041.09;;;1.79;100.00
12360;BME280;6244;51.460;7.090;2023-12-07T07:32:51;101035.84;;;1.88;100.00
12360;BME280;6244;51.460;7.090;2023-12-07T07:37:47;101022.91;;;1.88;100.00
12360;BME280;6244;51.460;7.090;2023-12-07T07:42:44;101021.25;;;1.79;100.00
12360;BME280;6244;51.460;7.090;2023-12-07T07:47:42;101028.19;;;1.75;100.00
12360;BME280;6244;51.460;7.090;2023-12-07T07:52:38;101028.84;;;1.94;100.00
12360;BME280;6244;51.460;7.090;2023-12-07T07:57:36;101036.69;;;1.85;100.00
12360;BME280;6244;51.460;7.090;2023-12-07T08:02:32;101028.97;;;1.82;100.00
12360;BME280;6244;51.460;7.090;2023-12-07T08:07:30;101029.06;;;1.71;100.00
12360;BME280;6244;51.460;7.090;2023-12-07T08:12:27;101019.47;;;1.83;100.00
12360;BME280;6244;51.460;7.090;2023-12-07T08:17:23;101013.47;;;1.79;100.00
12360;BME280;6244;51.460;7.090;2023-12-07T08:22:21;101035.81;;;1.91;100.00
12360;BME280;6244;51.460;7.090;2023-12-07T08:27:19;101040.03;;;1.96;100.00
12360;BME280;6244;51.460;7.090;2023-12-07T08:32:15;101037.38;;;2.05;100.00
12360;BME280;6244;51.460;7.090;2023-12-07T08:37:14;101030.56;;;1.97;100.00
12360;BME280;6244;51.460;7.090;2023-12-07T08:42:10;101033.16;;;1.95;100.00
12360;BME280;6244;51.460;7.090;2023-12-07T08:47:09;101041.00;;;1.85;100.00
12360;BME280;6244;51.460;7.090;2023-12-07T08:52:05;101050.38;;;2.01;100.00
12360;BME280;6244;51.460;7.090;2023-12-07T08:57:02;101054.66;;;2.03;100.00
12360;BME280;6244;51.460;7.090;2023-12-07T09:01:59;101057.94;;;2.19;100.00
12360;BME280;6244;51.460;7.090;2023-12-07T09:06:57;101056.22;;;2.20;100.00
12360;BME280;6244;51.460;7.090;2023-12-07T09:11:53;101063.97;;;2.20;100.00
12360;BME280;6244;51.460;7.090;2023-12-07T09:16:50;101056.94;;;2.32;100.00
12360;BME280;6244;51.460;7.090;2023-12-07T09:21:46;101047.44;;;2.36;100.00
12360;BME280;6244;51.460;7.090;2023-12-07T09:26:44;101054.63;;;2.82;100.00
12360;BME280;6244;51.460;7.090;2023-12-07T09:31:41;101044.19;;;3.46;100.00
12360;BME280;6244;51.460;7.090;2023-12-07T09:36:37;101042.91;;;4.66;94.43
12360;BME280;6244;51.460;7.090;2023-12-07T09:41:34;101042.66;;;6.24;82.81
12360;BME280;6244;51.460;7.090;2023-12-07T09:46:32;101034.91;;;5.86;74.60
12360;BME280;6244;51.460;7.090;2023-12-07T09:51:29;101032.28;;;6.22;75.52
12360;BME280;6244;51.460;7.090;2023-12-07T09:56:28;101027.91;;;6.54;74.72
12360;BME280;6244;51.460;7.090;2023-12-07T10:01:28;101026.78;;;6.33;71.90
12360;BME280;6244;51.460;7.090;2023-12-07T10:06:26;101011.16;;;6.62;72.09
12360;BME280;6244;51.460;7.090;2023-12-07T10:11:22;100995.09;;;7.58;69.07
12360;BME280;6244;51.460;7.090;2023-12-07T10:16:19;100995.53;;;8.69;67.42
12360;BME280;6244;51.460;7.090;2023-12-07T10:21:15;100980.09;;;9.71;60.27
12360;BME280;6244;51.460;7.090;2023-12-07T10:26:16;100969.03;;;9.44;59.86
12360;BME280;6244;51.460;7.090;2023-12-07T10:31:17;100973.56;;;9.39;58.79
12360;BME280;6244;51.460;7.090;2023-12-07T10:36:14;100959.94;;;9.93;55.36
12360;BME280;6244;51.460;7.090;2023-12-07T10:41:13;100942.63;;;9.49;56.69
12360;BME280;6244;51.460;7.090;2023-12-07T10:46:14;100951.16;;;9.74;55.92
12360;BME280;6244;51.460;7.090;2023-12-07T10:51:11;100934.44;;;10.36;53.42
12360;BME280;6244;51.460;7.090;2023-12-07T10:56:11;100929.13;;;9.78;53.60
12360;BME280;6244;51.460;7.090;2023-12-07T11:01:11;100911.22;;;10.08;54.35
12360;BME280;6244;51.460;7.090;2023-12-07T11:06:09;100906.88;;;10.46;53.19
12360;BME280;6244;51.460;7.090;2023-12-07T11:11:12;100905.06;;;10.28;51.78
12360;BME280;6244;51.460;7.090;2023-12-07T11:16:12;100898.53;;;10.74;51.27
12360;BME280;6244;51.460;7.090;2023-12-07T11:21:09;100882.88;;;10.54;50.35
12360;BME280;6244;51.460;7.090;2023-12-07T11:26:06;100871.19;;;10.78;52.55
12360;BME280;6244;51.460;7.090;2023-12-07T11:31:03;100870.72;;;12.24;46.82
12360;BME280;6244;51.460;7.090;2023-12-07T11:36:05;100858.75;;;12.19;46.84
12360;BME280;6244;51.460;7.090;2023-12-07T11:41:02;100856.19;;;11.34;47.82
12360;BME280;6244;51.460;7.090;2023-12-07T11:45:59;100842.41;;;11.63;47.53
12360;BME280;6244;51.460;7.090;2023-12-07T11:50:57;100832.00;;;11.77;47.42
12360;BME280;6244;51.460;7.090;2023-12-07T11:55:55;100816.03;;;11.65;46.57
12360;BME280;6244;51.460;7.090;2023-12-07T12:00:52;100829.75;;;11.02;45.89
12360;BME280;6244;51.460;7.090;2023-12-07T12:05:49;100820.03;;;10.34;47.94
12360;BME280;6244;51.460;7.090;2023-12-07T12:10:46;100813.31;;;9.70;49.53
12360;BME280;6244;51.460;7.090;2023-12-07T12:15:46;100801.44;;;10.19;48.14
12360;BME280;6244;51.460;7.090;2023-12-07T12:20:44;100787.53;;;11.57;48.53
12360;BME280;6244;51.460;7.090;2023-12-07T12:25:41;100795.81;;;11.16;46.72
12360;BME280;6244;51.460;7.090;2023-12-07T12:30:38;100792.09;;;10.69;48.04
12360;BME280;6244;51.460;7.090;2023-12-07T12:35:36;100799.94;;;9.37;51.12
12360;BME280;6244;51.460;7.090;2023-12-07T12:40:33;100790.50;;;7.83;56.10
12360;BME280;6244;51.460;7.090;2023-12-07T12:45:29;100787.41;;;7.00;60.30
12360;BME280;6244;51.460;7.090;2023-12-07T12:50:37;100780.59;;;6.15;62.61
12360;BME280;6244;51.460;7.090;2023-12-07T12:55:35;100774.75;;;5.77;65.16
12360;BME280;6244;51.460;7.090;2023-12-07T13:00:32;100772.66;;;5.60;66.00
12360;BME280;6244;51.460;7.090;2023-12-07T13:05:29;100756.50;;;5.49;67.87
12360;BME280;6244;51.460;7.090;2023-12-07T13:10:28;100753.94;;;5.48;68.08
12360;BME280;6244;51.460;7.090;2023-12-07T13:15:25;100752.53;;;5.36;67.62
12360;BME280;6244;51.460;7.090;2023-12-07T13:20:22;100749.22;;;5.29;69.24
12360;BME280;6244;51.460;7.090;2023-12-07T13:25:18;100760.59;;;5.27;68.98
12360;BME280;6244;51.460;7.090;2023-12-07T13:30:16;100751.38;;;5.15;68.16
12360;BME280;6244;51.460;7.090;2023-12-07T13:35:13;100750.38;;;5.21;68.05
12360;BME280;6244;51.460;7.090;2023-12-07T13:40:10;100751.13;;;5.24;68.68
12360;BME280;6244;51.460;7.090;2023-12-07T13:45:07;100745.41;;;5.12;69.07
12360;BME280;6244;51.460;7.090;2023-12-07T13:50:07;100731.97;;;4.94;69.59
12360;BME280;6244;51.460;7.090;2023-12-07T13:55:04;100738.53;;;4.77;69.47
12360;BME280;6244;51.460;7.090;2023-12-07T14:00:01;100732.69;;;4.67;70.20
12360;BME280;6244;51.460;7.090;2023-12-07T14:04:57;100740.03;;;4.85;70.63
12360;BME280;6244;51.460;7.090;2023-12-07T14:09:55;100727.63;;;4.96;71.83
12360;BME280;6244;51.460;7.090;2023-12-07T14:14:52;100706.66;;;4.68;70.63
12360;BME280;6244;51.460;7.090;2023-12-07T14:19:50;100696.63;;;4.55;72.21
12360;BME280;6244;51.460;7.090;2023-12-07T14:24:48;100686.78;;;4.33;72.34
12360;BME280;6244;51.460;7.090;2023-12-07T14:29:46;100668.94;;;4.20;72.69
12360;BME280;6244;51.460;7.090;2023-12-07T14:34:43;100664.59;;;4.20;73.76
12360;BME280;6244;51.460;7.090;2023-12-07T14:39:40;100655.06;;;4.21;74.14
12360;BME280;6244;51.460;7.090;2023-12-07T14:44:37;100651.06;;;4.07;74.86
12360;BME280;6244;51.460;7.090;2023-12-07T14:49:34;100656.25;;;4.07;74.79
12360;BME280;6244;51.460;7.090;2023-12-07T14:54:31;100651.88;;;4.11;74.39
12360;BME280;6244;51.460;7.090;2023-12-07T14:59:27;100634.59;;;4.10;74.88
12360;BME280;6244;51.460;7.090;2023-12-07T15:04:24;100628.84;;;3.97;75.21
12360;BME280;6244;51.460;7.090;2023-12-07T15:09:22;100615.13;;;3.91;75.27
12360;BME280;6244;51.460;7.090;2023-12-07T15:14:18;100613.00;;;3.72;75.33
12360;BME280;6244;51.460;7.090;2023-12-07T15:19:15;100599.41;;;3.61;75.73
12360;BME280;6244;51.460;7.090;2023-12-07T15:24:12;100598.69;;;3.54;76.25
12360;BME280;6244;51.460;7.090;2023-12-07T15:29:10;100601.31;;;3.53;75.86
12360;BME280;6244;51.460;7.090;2023-12-07T15:34:06;100603.97;;;3.51;76.11
12360;BME280;6244;51.460;7.090;2023-12-07T15:39:05;100601.72;;;3.36;76.29
12360;BME280;6244;51.460;7.090;2023-12-07T15:44:02;100597.53;;;3.29;76.07
12360;BME280;6244;51.460;7.090;2023-12-07T15:49:00;100595.31;;;3.12;77.23
12360;BME280;6244;51.460;7.090;2023-12-07T15:53:56;100583.34;;;3.07;77.64
12360;BME280;6244;51.460;7.090;2023-12-07T15:58:53;100579.81;;;3.11;77.62
12360;BME280;6244;51.460;7.090;2023-12-07T16:03:49;100579.94;;;3.05;77.30
12360;BME280;6244;51.460;7.090;2023-12-07T16:08:47;100573.16;;;2.98;77.34
12360;BME280;6244;51.460;7.090;2023-12-07T16:13:43;100572.25;;;3.00;77.82
12360;BME280;6244;51.460;7.090;2023-12-07T16:18:40;100549.81;;;2.98;77.71
12360;BME280;6244;51.460;7.090;2023-12-07T16:23:36;100549.97;;;2.91;77.48
12360;BME280;6244;51.460;7.090;2023-12-07T16:28:34;100530.25;;;2.84;77.45
12360;BME280;6244;51.460;7.090;2023-12-07T16:33:31;100513.16;;;2.77;77.89
12360;BME280;6244;51.460;7.090;2023-12-07T16:38:28;100508.03;;;2.73;78.63
12360;BME280;6244;51.460;7.090;2023-12-07T16:43:24;100497.69;;;2.73;78.69
12360;BME280;6244;51.460;7.090;2023-12-07T16:48:22;100502.94;;;2.70;79.30
12360;BME280;6244;51.460;7.090;2023-12-07T16:53:19;100490.69;;;2.78;79.04
12360;BME280;6244;51.460;7.090;2023-12-07T16:58:15;100480.31;;;2.78;78.54
12360;BME280;6244;51.460;7.090;2023-12-07T17:03:12;100476.25;;;2.66;78.28
12360;BME280;6244;51.460;7.090;2023-12-07T17:08:10;100484.94;;;2.63;79.36
12360;BME280;6244;51.460;7.090;2023-12-07T17:13:07;100479.22;;;2.48;79.11
12360;BME280;6244;51.460;7.090;2023-12-07T17:18:04;100476.72;;;2.43;79.92
12360;BME280;6244;51.460;7.090;2023-12-07T17:23:01;100466.97;;;2.56;79.14
12360;BME280;6244;51.460;7.090;2023-12-07T17:28:02;100471.25;;;2.57;78.73
12360;BME280;6244;51.460;7.090;2023-12-07T17:32:58;100476.97;;;2.31;78.47
12360;BME280;6244;51.460;7.090;2023-12-07T17:37:55;100474.28;;;2.37;79.40
12360;BME280;6244;51.460;7.090;2023-12-07T17:42:51;100463.66;;;2.49;79.48
12360;BME280;6244;51.460;7.090;2023-12-07T17:47:49;100467.81;;;2.56;78.74
12360;BME280;6244;51.460;7.090;2023-12-07T17:52:46;100456.59;;;2.56;77.60
12360;BME280;6244;51.460;7.090;2023-12-07T17:57:42;100450.19;;;2.32;78.06
12360;BME280;6244;51.460;7.090;2023-12-07T18:02:39;100456.13;;;2.39;77.78
12360;BME280;6244;51.460;7.090;2023-12-07T18:07:37;100460.19;;;2.50;77.30
12360;BME280;6244;51.460;7.090;2023-12-07T18:12:33;100458.50;;;2.49;77.30
12360;BME280;6244;51.460;7.090;2023-12-07T18:17:30;100446.44;;;2.48;76.88
12360;BME280;6244;51.460;7.090;2023-12-07T18:22:26;100437.88;;;2.43;75.85
12360;BME280;6244;51.460;7.090;2023-12-07T18:27:24;100434.28;;;2.50;75.84
12360;BME280;6244;51.460;7.090;2023-12-07T18:32:20;100423.91;;;2.52;74.39
12360;BME280;6244;51.460;7.090;2023-12-07T18:37:17;100426.81;;;2.37;73.19
12360;BME280;6244;51.460;7.090;2023-12-07T18:42:13;100413.28;;;2.24;72.85
12360;BME280;6244;51.460;7.090;2023-12-07T18:47:11;100403.56;;;2.33;73.47
12360;BME280;6244;51.460;7.090;2023-12-07T18:52:09;100404.59;;;2.26;72.13
12360;BME280;6244;51.460;7.090;2023-12-07T18:57:05;100411.22;;;2.40;72.42
12360;BME280;6244;51.460;7.090;2023-12-07T19:02:02;100409.38;;;2.45;72.10
12360;BME280;6244;51.460;7.090;2023-12-07T19:07:00;100404.06;;;2.51;71.33
12360;BME280;6244;51.460;7.090;2023-12-07T19:11:57;100406.81;;;2.43;70.35
12360;BME280;6244;51.460;7.090;2023-12-07T19:16:53;100397.72;;;2.25;70.77
12360;BME280;6244;51.460;7.090;2023-12-07T19:21:49;100403.81;;;2.21;71.46
12360;BME280;6244;51.460;7.090;2023-12-07T19:26:47;100387.22;;;2.31;69.22
12360;BME280;6244;51.460;7.090;2023-12-07T19:31:44;100380.47;;;2.24;71.02
12360;BME280;6244;51.460;7.090;2023-12-07T19:36:40;100377.78;;;2.29;69.81
12360;BME280;6244;51.460;7.090;2023-12-07T19:41:40;100382.09;;;2.28;70.00
12360;BME280;6244;51.460;7.090;2023-12-07T19:46:38;100377.91;;;2.23;69.95
12360;BME280;6244;51.460;7.090;2023-12-07T19:51:35;100361.34;;;2.30;68.37
12360;BME280;6244;51.460;7.090;2023-12-07T19:56:33;100357.91;;;2.29;69.12
12360;BME280;6244;51.460;7.090;2023-12-07T20:01:29;100343.06;;;2.38;71.22
12360;BME280;6244;51.460;7.090;2023-12-07T20:06:27;100329.25;;;2.39;70.64
12360;BME280;6244;51.460;7.090;2023-12-07T20:11:24;100316.28;;;2.39;70.90
12360;BME280;6244;51.460;7.090;2023-12-07T20:16:20;100294.66;;;2.41;70.56
12360;BME280;6244;51.460;7.090;2023-12-07T20:21:17;100289.47;;;2.41;71.06
12360;BME280;6244;51.460;7.090;2023-12-07T20:26:18;100263.72;;;2.35;70.95
12360;BME280;6244;51.460;7.090;2023-12-07T20:31:15;100256.69;;;2.40;72.04
12360;BME280;6244;51.460;7.090;2023-12-07T20:36:15;100252.34;;;2.42;71.29
12360;BME280;6244;51.460;7.090;2023-12-07T20:41:12;100248.09;;;2.40;72.24
12360;BME280;6244;51.460;7.090;2023-12-07T20:46:10;100249.91;;;2.36;71.11
12360;BME280;6244;51.460;7.090;2023-12-07T20:51:06;100229.22;;;2.34;72.42
12360;BME280;6244;51.460;7.090;2023-12-07T20:56:04;100208.22;;;2.45;71.49
12360;BME280;6244;51.460;7.090;2023-12-07T21:01:00;100214.13;;;2.52;71.28
12360;BME280;6244;51.460;7.090;2023-12-07T21:05:58;100208.28;;;2.44;71.83
12360;BME280;6244;51.460;7.090;2023-12-07T21:10:54;100188.38;;;2.46;71.82
12360;BME280;6244;51.460;7.090;2023-12-07T21:15:51;100173.72;;;2.45;72.34
12360;BME280;6244;51.460;7.090;2023-12-07T21:20:48;100165.84;;;2.49;72.01
12360;BME280;6244;51.460;7.090;2023-12-07T21:25:45;100169.38;;;2.45;71.87
12360;BME280;6244;51.460;7.090;2023-12-07T21:30:42;100146.88;;;2.49;72.07
12360;BME280;6244;51.460;7.090;2023-12-07T21:35:39;100127.75;;;2.53;73.36
12360;BME280;6244;51.460;7.090;2023-12-07T21:40:35;100119.09;;;2.54;71.44
12360;BME280;6244;51.460;7.090;2023-12-07T21:45:33;100118.25;;;2.53;71.68
12360;BME280;6244;51.460;7.090;2023-12-07T21:50:30;100114.81;;;2.53;72.15
12360;BME280;6244;51.460;7.090;2023-12-07T21:55:26;100101.69;;;2.60;71.63
12360;BME280;6244;51.460;7.090;2023-12-07T22:00:23;100087.94;;;2.57;71.65
12360;BME280;6244;51.460;7.090;2023-12-07T22:05:21;100072.34;;;2.58;72.27
12360;BME280;6244;51.460;7.090;2023-12-07T22:10:18;100058.41;;;2.64;70.62
12360;BME280;6244;51.460;7.090;2023-12-07T22:15:15;100059.16;;;2.68;71.63
12360;BME280;6244;51.460;7.090;2023-12-07T22:20:11;100030.44;;;2.75;70.02
12360;BME280;6244;51.460;7.090;2023-12-07T22:25:09;100020.09;;;2.75;69.16
12360;BME280;6244;51.460;7.090;2023-12-07T22:30:07;100002.88;;;2.73;67.92
12360;BME280;6244;51.460;7.090;2023-12-07T22:35:04;99994.88;;;2.80;67.69
12360;BME280;6244;51.460;7.090;2023-12-07T22:40:01;99981.03;;;2.81;67.49
12360;BME280;6244;51.460;7.090;2023-12-07T22:44:59;99972.31;;;2.84;68.52
12360;BME280;6244;51.460;7.090;2023-12-07T22:49:55;99952.41;;;2.86;66.96
12360;BME280;6244;51.460;7.090;2023-12-07T22:54:52;99932.47;;;2.88;66.50
12360;BME280;6244;51.460;7.090;2023-12-07T22:59:48;99923.75;;;2.90;66.81
12360;BME280;6244;51.460;7.090;2023-12-07T23:04:46;99909.06;;;2.91;65.58
12360;BME280;6244;51.460;7.090;2023-12-07T23:09:43;99908.91;;;2.95;65.13
12360;BME280;6244;51.460;7.090;2023-12-07T23:14:39;99915.66;;;3.01;63.88
12360;BME280;6244;51.460;7.090;2023-12-07T23:19:36;99902.75;;;3.00;64.30
12360;BME280;6244;51.460;7.090;2023-12-07T23:24:34;99892.88;;;3.11;63.32
12360;BME280;6244;51.460;7.090;2023-12-07T23:29:31;99910.00;;;3.15;63.35
12360;BME280;6244;51.460;7.090;2023-12-07T23:34:27;99912.50;;;3.18;61.79
12360;BME280;6244;51.460;7.090;2023-12-07T23:39:24;99911.69;;;3.16;62.31
12360;BME280;6244;51.460;7.090;2023-12-07T23:44:21;99906.34;;;3.20;63.08
12360;BME280;6244;51.460;7.090;2023-12-07T23:49:18;99914.06;;;3.23;62.22
12360;BME280;6244;51.460;7.090;2023-12-07T23:54:14;99883.09;;;3.19;61.89
12360;BME280;6244;51.460;7.090;2023-12-07T23:59:12;99886.16;;;3.30;60.80
